Time;durP1;ratioP1;P1;durP2;ratioP2;P2;SDS_P1;SDS_P2;PMS_P1;PMS_P2;Temp;Humidity;BMP_temperature;BMP_pressure;BME280_temperature;BME280_humidity;BME280_pressure;Samples;Min_cycle;Max_cycle;Signal;HPM_P1;HPM_P2
2022/12/12 00:00:22;;;;;;;29.97;14.00;;;0.60;99.90;;;;;;5028610;28;20182;-67
2022/12/12 00:02:48;;;;;;;19.20;11.20;;;0.60;99.90;;;;;;5029849;28;20163;-64
2022/12/12 00:05:17;;;;;;;16.77;11.10;;;0.50;99.90;;;;;;5029927;28;20462;-63
2022/12/12 00:07:43;;;;;;;18.77;12.10;;;0.50;99.90;;;;;;5030060;28;20403;-66
2022/12/12 00:10:09;;;;;;;17.77;11.77;;;0.30;99.90;;;;;;5029589;28;20952;-68
2022/12/12 00:12:35;;;;;;;13.73;11.17;;;0.40;99.90;;;;;;5027807;28;20438;-66
2022/12/12 00:15:00;;;;;;;20.90;12.80;;;0.30;99.90;;;;;;5029831;28;21044;-64
2022/12/12 00:17:27;;;;;;;16.27;11.40;;;0.20;99.90;;;;;;5029973;28;20583;-65
2022/12/12 00:19:52;;;;;;;17.13;12.27;;;0.10;99.90;;;;;;5029771;28;20168;-65
2022/12/12 00:22:18;;;;;;;17.83;13.93;;;0.30;99.90;;;;;;5027770;28;20549;-66
2022/12/12 00:24:44;;;;;;;19.67;12.47;;;0.30;99.90;;;;;;5029284;28;20618;-65
2022/12/12 00:27:09;;;;;;;19.80;12.60;;;0.30;99.90;;;;;;5029511;28;20184;-66
2022/12/12 00:29:35;;;;;;;17.13;12.77;;;0.30;99.90;;;;;;5031069;28;20195;-66
2022/12/12 00:32:01;;;;;;;21.90;12.77;;;0.40;99.90;;;;;;5031776;28;20309;-65
2022/12/12 00:34:27;;;;;;;21.53;13.27;;;0.50;99.90;;;;;;5027315;28;20206;-67
2022/12/12 00:36:52;;;;;;;18.67;12.90;;;0.40;99.90;;;;;;5032736;28;20179;-67
2022/12/12 00:39:18;;;;;;;20.13;13.53;;;0.40;99.90;;;;;;5032271;28;20168;-67
2022/12/12 00:41:44;;;;;;;15.97;12.07;;;0.50;99.90;;;;;;5031669;28;20203;-64
2022/12/12 00:44:11;;;;;;;15.70;12.87;;;0.30;99.90;;;;;;5032987;28;20436;-65
2022/12/12 00:46:37;;;;;;;20.43;13.10;;;0.00;99.90;;;;;;5032198;28;20791;-66
2022/12/12 00:49:02;;;;;;;21.00;13.90;;;-0.20;99.90;;;;;;5034177;28;20410;-68
2022/12/12 00:51:29;;;;;;;21.03;13.10;;;-0.30;99.90;;;;;;5034414;28;20171;-67
2022/12/12 00:53:56;;;;;;;22.03;12.70;;;-0.20;99.90;;;;;;5034347;28;20172;-67
2022/12/12 00:56:23;;;;;;;25.60;13.70;;;0.00;99.90;;;;;;5032715;28;20422;-67
2022/12/12 00:58:50;;;;;;;16.40;13.60;;;0.00;99.90;;;;;;5034096;28;20414;-67
2022/12/12 01:01:22;;;;;;;22.80;14.70;;;-0.20;99.90;;;;;;5033516;28;20474;-66
2022/12/12 01:03:48;;;;;;;20.33;13.63;;;-0.20;99.90;;;;;;5034277;28;20406;-65
2022/12/12 01:06:14;;;;;;;18.10;13.60;;;0.00;99.90;;;;;;5032407;28;20472;-65
2022/12/12 01:08:40;;;;;;;18.57;12.93;;;-0.20;99.90;;;;;;5033638;28;20406;-65
2022/12/12 01:11:07;;;;;;;23.03;14.73;;;-0.20;99.90;;;;;;5031842;28;20421;-65
2022/12/12 01:13:33;;;;;;;17.90;12.70;;;-0.10;99.90;;;;;;5032897;28;20493;-66
2022/12/12 01:15:59;;;;;;;17.13;13.90;;;0.10;99.90;;;;;;5031300;28;20552;-65
2022/12/12 01:18:24;;;;;;;21.63;12.97;;;0.10;99.90;;;;;;5033170;28;20176;-64
2022/12/12 01:20:50;;;;;;;22.63;15.27;;;0.00;99.90;;;;;;5031963;28;20195;-64
2022/12/12 01:23:16;;;;;;;23.70;14.23;;;-0.10;99.90;;;;;;5032756;28;20620;-62
2022/12/12 01:25:42;;;;;;;20.30;13.00;;;-0.20;99.90;;;;;;5031202;28;20481;-66
2022/12/12 01:28:08;;;;;;;23.83;14.70;;;-0.10;99.90;;;;;;5032836;28;20593;-67
2022/12/12 01:30:34;;;;;;;21.07;14.37;;;-0.40;99.90;;;;;;5031962;28;20176;-65
2022/12/12 01:33:00;;;;;;;22.00;13.93;;;-0.60;99.90;;;;;;5032420;28;20450;-64
2022/12/12 01:35:26;;;;;;;21.23;13.93;;;-0.50;99.90;;;;;;5031216;28;20461;-64
2022/12/12 01:37:53;;;;;;;16.40;12.40;;;-0.40;99.90;;;;;;5032565;28;20406;-63
2022/12/12 01:40:22;;;;;;;30.30;16.97;;;-0.30;99.90;;;;;;5031489;28;20437;-66
2022/12/12 01:42:48;;;;;;;31.53;14.57;;;-0.20;99.90;;;;;;5030427;28;20506;-64
2022/12/12 01:45:51;;;;;;;25.00;14.97;;;-0.10;99.90;;;;;;5032004;28;20513;-65
2022/12/12 01:48:18;;;;;;;18.13;12.87;;;-0.30;99.90;;;;;;5032286;28;20406;-64
2022/12/12 01:50:44;;;;;;;20.57;14.90;;;-0.50;99.90;;;;;;5031470;28;20898;-65
2022/12/12 01:53:13;;;;;;;21.50;14.00;;;-0.80;99.90;;;;;;5031359;28;20810;-63
2022/12/12 01:55:39;;;;;;;23.63;13.90;;;-0.60;99.90;;;;;;5031236;28;20454;-66
2022/12/12 01:58:04;;;;;;;18.20;12.93;;;-0.50;99.90;;;;;;5031901;28;20417;-63
2022/12/12 02:00:31;;;;;;;20.10;13.20;;;-0.40;99.90;;;;;;5031348;28;20172;-65
2022/12/12 02:02:57;;;;;;;23.00;14.67;;;-0.40;99.90;;;;;;5030439;28;20174;-63
2022/12/12 02:05:29;;;;;;;32.67;16.90;;;-0.50;99.90;;;;;;5031663;28;20427;-65
2022/12/12 02:07:58;;;;;;;22.23;13.20;;;-0.60;99.90;;;;;;5031749;28;20453;-65
2022/12/12 02:10:24;;;;;;;24.13;13.47;;;-0.60;99.90;;;;;;5031059;28;20526;-66
2022/12/12 02:12:50;;;;;;;18.20;13.13;;;-0.50;99.90;;;;;;5030731;28;20437;-63
2022/12/12 02:15:16;;;;;;;20.90;12.87;;;-0.50;99.90;;;;;;5031692;28;20199;-66
2022/12/12 02:18:09;;;;;;;18.10;13.03;;;-0.60;99.90;;;;;;5031727;28;20402;-65
2022/12/12 02:20:46;;;;;;;21.50;15.27;;;-0.60;99.90;;;;;;5030833;28;20485;-63
2022/12/12 02:23:27;;;;;;;19.33;13.90;;;-0.80;99.90;;;;;;5030831;28;20430;-65
2022/12/12 02:25:59;;;;;;;22.23;14.50;;;-0.70;99.90;;;;;;5031115;28;20464;-65
2022/12/12 02:29:06;;;;;;;19.67;12.87;;;-0.90;99.90;;;;;;5031437;28;20398;-63
2022/12/12 02:32:06;;;;;;;22.83;13.27;;;-1.10;99.90;;;;;;4968786;28;20499;-66
2022/12/12 02:34:50;;;;;;;21.23;13.03;;;-1.20;99.90;;;;;;5015806;28;20807;-66
2022/12/12 02:37:22;;;;;;;30.20;13.67;;;-1.30;99.90;;;;;;5045201;28;20807;-66
2022/12/12 02:40:02;;;;;;;54.87;14.87;;;-1.40;99.90;;;;;;5032168;28;20498;-68
2022/12/12 02:42:36;;;;;;;23.00;13.33;;;-1.40;99.90;;;;;;5030091;28;20512;-66
2022/12/12 02:45:12;;;;;;;36.27;15.90;;;-1.50;99.90;;;;;;5030652;28;20524;-67
2022/12/12 02:47:47;;;;;;;24.30;14.70;;;-1.50;99.90;;;;;;5032078;28;20398;-67
2022/12/12 02:50:24;;;;;;;20.80;14.00;;;-1.50;99.90;;;;;;5031275;28;20406;-66
2022/12/12 02:52:50;;;;;;;19.13;12.37;;;-1.50;99.90;;;;;;5029933;28;20434;-68
2022/12/12 02:55:16;;;;;;;20.97;12.93;;;-1.50;99.90;;;;;;5041534;23;20495;-65
2022/12/12 02:57:42;;;;;;;31.20;15.00;;;-1.70;99.90;;;;;;5010882;28;20872;-65
2022/12/12 03:00:12;;;;;;;19.20;12.50;;;-1.70;99.90;;;;;;5010711;28;20434;-63
2022/12/12 03:10:17;;;;;;;20.90;12.10;;;-1.90;99.90;;;;;;4950439;29;20433;-66
2022/12/12 03:12:57;;;;;;;18.20;12.40;;;-1.90;99.90;;;;;;4930806;28;20442;-66
2022/12/12 03:15:29;;;;;;;17.80;12.00;;;-1.90;99.90;;;;;;4931150;29;20431;-65
2022/12/12 03:18:04;;;;;;;15.10;11.60;;;-2.00;99.90;;;;;;4934587;29;21021;-65
2022/12/12 03:20:44;;;;;;;21.47;12.37;;;-2.00;99.90;;;;;;4941892;28;20422;-66
2022/12/12 03:23:15;;;;;;;38.20;14.10;;;-1.90;99.90;;;;;;4950449;28;20575;-65
2022/12/12 03:25:50;;;;;;;27.10;12.70;;;-2.00;99.90;;;;;;4949898;28;20525;-66
2022/12/12 03:28:57;;;;;;;44.00;13.70;;;-2.10;99.90;;;;;;4949343;28;20445;-65
2022/12/12 03:31:27;;;;;;;16.00;11.50;;;-2.00;99.90;;;;;;4936588;28;20461;-65
2022/12/12 03:33:57;;;;;;;16.87;9.67;;;-2.10;99.90;;;;;;4950045;29;20417;-65
2022/12/12 03:36:31;;;;;;;17.90;11.27;;;-2.20;99.90;;;;;;4951003;29;20399;-65
2022/12/12 03:39:05;;;;;;;14.17;11.27;;;-2.20;99.90;;;;;;4958556;28;20780;-65
2022/12/12 03:41:39;;;;;;;19.13;11.50;;;-2.20;99.90;;;;;;5012258;28;20435;-66
2022/12/12 03:44:25;;;;;;;15.70;11.50;;;-2.10;99.90;;;;;;5010611;28;20432;-66
2022/12/12 03:46:59;;;;;;;24.17;12.20;;;-2.10;99.90;;;;;;5010404;28;20502;-66
2022/12/12 03:49:37;;;;;;;15.87;10.90;;;-2.00;99.90;;;;;;5009679;28;20512;-66
2022/12/12 03:52:10;;;;;;;14.63;11.70;;;-2.10;99.90;;;;;;5010010;28;20454;-66
2022/12/12 03:54:50;;;;;;;16.40;11.30;;;-2.20;99.90;;;;;;5010542;28;20449;-66
2022/12/12 03:57:29;;;;;;;18.37;12.47;;;-2.20;99.90;;;;;;5010263;28;20919;-66
2022/12/12 04:00:04;;;;;;;17.60;11.50;;;-2.20;99.90;;;;;;5009459;28;20490;-65
2022/12/12 04:02:38;;;;;;;16.60;11.50;;;-2.30;99.90;;;;;;5009850;28;20410;-65
2022/12/12 04:05:14;;;;;;;18.17;11.70;;;-2.30;99.90;;;;;;5009677;28;20463;-65
2022/12/12 04:08:00;;;;;;;15.60;10.90;;;-2.30;99.90;;;;;;5009288;28;20425;-66
2022/12/12 04:13:20;;;;;;;21.20;13.63;;;-2.40;99.90;;;;;;5010417;28;20403;-67
2022/12/12 04:15:55;;;;;;;24.80;11.70;;;-2.40;99.90;;;;;;5010303;28;20459;-66
2022/12/12 04:18:49;;;;;;;60.10;16.70;;;-2.50;99.90;;;;;;5009507;28;20426;-66
2022/12/12 04:24:33;;;;;;;22.17;11.77;;;-2.50;99.90;;;;;;5010502;28;20493;-65
2022/12/12 04:27:30;;;;;;;24.53;13.30;;;-2.60;99.90;;;;;;5008983;28;20429;-66
2022/12/12 04:30:04;;;;;;;20.40;12.97;;;-2.50;99.90;;;;;;5006756;28;20470;-65
2022/12/12 04:32:39;;;;;;;18.10;12.17;;;-2.50;99.90;;;;;;5009157;28;20450;-65
2022/12/12 04:35:14;;;;;;;23.00;12.53;;;-2.50;99.90;;;;;;5010035;28;20839;-66
2022/12/12 04:37:57;;;;;;;30.67;13.13;;;-2.30;99.90;;;;;;5009039;28;20437;-66
2022/12/12 04:40:25;;;;;;;21.73;12.80;;;-2.30;99.90;;;;;;5002209;28;20461;-64
2022/12/12 04:42:58;;;;;;;20.23;12.67;;;-2.30;99.90;;;;;;5010059;28;20414;-66
2022/12/12 04:45:29;;;;;;;31.30;12.07;;;-2.30;99.90;;;;;;5009959;28;20922;-66
2022/12/12 04:47:57;;;;;;;19.87;12.23;;;-2.40;99.90;;;;;;5009321;28;20529;-66
2022/12/12 04:50:26;;;;;;;20.80;13.60;;;-2.40;99.90;;;;;;5009861;28;20415;-65
2022/12/12 04:52:56;;;;;;;21.67;12.47;;;-2.30;99.90;;;;;;5009908;28;20407;-65
2022/12/12 04:55:28;;;;;;;17.63;11.60;;;-2.40;99.90;;;;;;5008772;28;20490;-65
2022/12/12 04:57:54;;;;;;;17.97;11.90;;;-2.50;99.90;;;;;;5009971;28;20434;-66
2022/12/12 05:00:22;;;;;;;15.30;10.93;;;-2.60;99.90;;;;;;5008167;28;20481;-66
2022/12/12 05:03:09;;;;;;;24.43;12.00;;;-2.60;99.90;;;;;;5009374;28;20446;-65
2022/12/12 05:05:46;;;;;;;22.07;11.17;;;-2.70;99.90;;;;;;4999311;28;20517;-66
2022/12/12 05:08:37;;;;;;;19.77;11.50;;;-2.70;99.90;;;;;;5013237;28;20577;-65
2022/12/12 05:11:05;;;;;;;20.80;11.97;;;-2.60;99.90;;;;;;5004832;28;20463;-66
2022/12/12 05:13:39;;;;;;;16.17;10.50;;;-2.50;99.90;;;;;;5014152;28;20507;-66
2022/12/12 05:16:17;;;;;;;16.20;11.00;;;-2.60;99.90;;;;;;5014678;28;20458;-65
2022/12/12 05:18:44;;;;;;;13.87;12.30;;;-2.70;99.90;;;;;;5013883;28;20458;-66
2022/12/12 05:21:10;;;;;;;14.57;10.47;;;-2.80;99.90;;;;;;5012869;28;20439;-65
2022/12/12 05:23:35;;;;;;;17.97;11.37;;;-2.90;99.90;;;;;;5012068;28;20435;-67
2022/12/12 05:26:12;;;;;;;20.97;11.33;;;-2.90;99.90;;;;;;5006919;28;21070;-65
2022/12/12 05:28:37;;;;;;;23.67;11.87;;;-2.80;99.90;;;;;;5010312;28;20215;-64
2022/12/12 05:31:03;;;;;;;20.17;11.40;;;-2.80;99.90;;;;;;5002005;28;21097;-64
2022/12/12 05:33:29;;;;;;;31.87;13.17;;;-2.80;99.90;;;;;;5009378;28;20608;-66
2022/12/12 05:35:55;;;;;;;25.00;12.13;;;-2.70;99.90;;;;;;5006328;28;20209;-65
2022/12/12 05:38:21;;;;;;;24.40;12.20;;;-2.70;99.90;;;;;;5009743;28;20647;-62
2022/12/12 05:40:47;;;;;;;15.13;10.97;;;-2.70;99.90;;;;;;5007744;28;20271;-63
2022/12/12 05:43:12;;;;;;;25.07;10.80;;;-2.60;99.90;;;;;;5008471;28;20189;-65
2022/12/12 05:45:38;;;;;;;16.93;10.90;;;-2.70;99.90;;;;;;5010095;28;21113;-66
2022/12/12 05:48:04;;;;;;;25.70;12.27;;;-2.70;99.90;;;;;;5010888;28;20266;-66
2022/12/12 05:50:30;;;;;;;28.93;12.20;;;-2.70;99.90;;;;;;5009184;28;20280;-66
2022/12/12 05:52:55;;;;;;;17.70;12.27;;;-2.80;99.90;;;;;;5011227;28;20616;-65
2022/12/12 05:55:21;;;;;;;16.00;10.93;;;-2.80;99.90;;;;;;5010105;28;20208;-65
2022/12/12 05:57:47;;;;;;;17.10;10.00;;;-2.70;99.90;;;;;;5010163;28;20176;-66
2022/12/12 06:00:13;;;;;;;21.20;11.27;;;-2.80;99.90;;;;;;5009078;28;20188;-66
2022/12/12 06:02:38;;;;;;;25.00;12.00;;;-2.80;99.90;;;;;;5009300;28;20184;-65
2022/12/12 06:05:04;;;;;;;31.93;14.10;;;-2.80;99.90;;;;;;5009917;28;20287;-67
2022/12/12 06:07:30;;;;;;;19.83;11.97;;;-2.70;99.90;;;;;;5009910;28;20235;-66
2022/12/12 06:09:56;;;;;;;19.50;11.53;;;-2.70;99.90;;;;;;5009015;28;20851;-64
2022/12/12 06:12:22;;;;;;;16.50;10.90;;;-2.60;99.90;;;;;;5006660;28;20211;-64
2022/12/12 06:14:47;;;;;;;21.03;12.33;;;-2.70;99.90;;;;;;5007661;28;20570;-64
2022/12/12 06:17:13;;;;;;;17.03;10.53;;;-2.50;99.90;;;;;;5007858;28;20188;-65
2022/12/12 06:19:39;;;;;;;22.50;13.20;;;-2.40;99.90;;;;;;5007419;28;20242;-64
2022/12/12 06:22:04;;;;;;;20.77;12.30;;;-2.40;99.90;;;;;;5007319;28;20941;-67
2022/12/12 06:24:30;;;;;;;22.67;11.40;;;-2.50;99.90;;;;;;5008911;28;20200;-66
2022/12/12 06:26:56;;;;;;;19.13;11.13;;;-2.50;99.90;;;;;;5005035;28;20176;-67
2022/12/12 06:29:21;;;;;;;18.77;11.20;;;-2.70;99.90;;;;;;5005209;28;20539;-64
2022/12/12 06:31:47;;;;;;;23.03;12.33;;;-2.70;99.90;;;;;;5006437;28;20296;-67
2022/12/12 06:34:13;;;;;;;35.73;12.80;;;-2.90;99.90;;;;;;5006938;28;20238;-67
2022/12/12 06:36:39;;;;;;;19.13;11.57;;;-3.00;99.90;;;;;;5010947;28;20411;-67
2022/12/12 06:39:05;;;;;;;13.87;10.80;;;-2.80;99.90;;;;;;5007334;28;20236;-68
2022/12/12 06:41:30;;;;;;;20.63;11.17;;;-2.70;99.90;;;;;;5003367;28;20661;-63
2022/12/12 06:43:56;;;;;;;21.80;11.50;;;-2.70;99.90;;;;;;5007571;28;21136;-64
2022/12/12 06:46:24;;;;;;;35.03;12.93;;;-2.60;99.90;;;;;;5005948;28;20696;-65
2022/12/12 06:48:51;;;;;;;26.43;12.07;;;-2.50;99.90;;;;;;5003670;28;20219;-66
2022/12/12 06:51:20;;;;;;;44.00;14.23;;;-2.50;99.90;;;;;;5004297;28;20466;-65
2022/12/12 06:53:47;;;;;;;35.27;11.60;;;-2.60;99.90;;;;;;5005887;28;20438;-66
2022/12/12 06:56:15;;;;;;;23.10;11.20;;;-2.70;99.90;;;;;;5006370;28;20501;-66
2022/12/12 06:58:41;;;;;;;22.20;11.00;;;-2.80;99.90;;;;;;5005823;28;20876;-66
2022/12/12 07:01:07;;;;;;;26.63;10.97;;;-2.80;99.90;;;;;;5002793;28;20439;-67
2022/12/12 07:03:33;;;;;;;40.23;12.53;;;-2.80;99.90;;;;;;5007702;28;20593;-64
2022/12/12 07:05:59;;;;;;;15.67;10.63;;;-2.80;99.90;;;;;;5006394;28;21073;-66
2022/12/12 07:08:27;;;;;;;17.87;10.60;;;-2.70;99.90;;;;;;5008208;28;20807;-65
2022/12/12 07:10:53;;;;;;;21.60;11.50;;;-2.70;99.90;;;;;;5005399;28;20643;-65
2022/12/12 07:13:19;;;;;;;53.30;14.00;;;-2.60;99.90;;;;;;5010620;28;20904;-61
2022/12/12 07:15:47;;;;;;;31.60;12.07;;;-2.70;99.90;;;;;;5008909;28;20474;-64
2022/12/12 07:18:14;;;;;;;62.83;15.30;;;-2.50;99.90;;;;;;5008515;28;20168;-65
2022/12/12 07:20:41;;;;;;;21.60;12.07;;;-2.30;99.90;;;;;;5028041;28;20473;-64
2022/12/12 07:23:07;;;;;;;26.80;11.70;;;-2.10;99.90;;;;;;5024868;28;20411;-66
2022/12/12 07:25:36;;;;;;;39.20;14.13;;;-2.10;99.90;;;;;;5008395;28;20431;-64
2022/12/12 07:28:02;;;;;;;20.30;11.20;;;-2.20;99.90;;;;;;5008872;28;20820;-63
2022/12/12 07:30:28;;;;;;;34.80;12.43;;;-2.50;99.90;;;;;;5008086;28;20411;-64
2022/12/12 07:32:54;;;;;;;23.67;11.80;;;-2.30;99.90;;;;;;5021881;28;20338;-65
2022/12/12 07:35:19;;;;;;;21.00;11.30;;;-2.20;99.90;;;;;;5009670;28;20188;-65
2022/12/12 07:37:46;;;;;;;37.73;13.50;;;-2.10;99.90;;;;;;5009626;28;20180;-64
2022/12/12 07:40:11;;;;;;;21.40;12.07;;;-2.20;99.90;;;;;;5010191;28;20252;-64
2022/12/12 07:42:37;;;;;;;18.67;12.23;;;-2.30;99.90;;;;;;5009984;28;20564;-64
2022/12/12 07:45:03;;;;;;;28.63;10.30;;;-2.30;99.90;;;;;;5010722;28;20200;-65
2022/12/12 07:47:29;;;;;;;35.10;14.83;;;1.10;1.00;;;;;;5010238;28;20589;-65
2022/12/12 07:49:55;;;;;;;25.00;14.80;;;3.50;1.40;;;;;;5010676;28;20411;-63
2022/12/12 07:52:21;;;;;;;48.40;15.83;;;4.40;8.20;;;;;;5010096;28;20518;-65
2022/12/12 07:54:46;;;;;;;43.13;15.10;;;0.60;99.90;;;;;;5009793;28;20688;-64
2022/12/12 07:57:12;;;;;;;99.00;18.57;;;-1.10;99.90;;;;;;5008694;28;20182;-66
2022/12/12 07:59:38;;;;;;;42.00;14.63;;;-2.10;99.90;;;;;;5010016;28;20188;-66
2022/12/12 08:02:04;;;;;;;47.07;14.47;;;-2.00;99.90;;;;;;5009560;28;20505;-66
2022/12/12 08:04:30;;;;;;;33.90;13.57;;;-2.10;99.90;;;;;;5010720;28;20203;-66
2022/12/12 08:06:57;;;;;;;22.20;12.10;;;-2.20;99.90;;;;;;5010577;28;20633;-67
2022/12/12 08:09:23;;;;;;;24.30;12.80;;;-2.20;99.90;;;;;;5010615;28;20423;-65
2022/12/12 08:11:49;;;;;;;22.70;14.90;;;-2.10;99.90;;;;;;5010361;28;20470;-66
2022/12/12 08:14:15;;;;;;;29.60;14.10;;;-1.90;99.90;;;;;;5011193;28;20187;-65
2022/12/12 08:16:40;;;;;;;30.17;14.90;;;-2.00;99.90;;;;;;5010968;28;20404;-66
2022/12/12 08:19:06;;;;;;;33.63;15.60;;;-1.80;99.90;;;;;;5011201;28;20172;-67
2022/12/12 08:21:32;;;;;;;81.87;22.33;;;-1.90;99.90;;;;;;5011108;28;20180;-63
2022/12/12 08:24:00;;;;;;;28.37;14.80;;;-1.70;99.90;;;;;;5011379;28;20180;-68
2022/12/12 08:26:26;;;;;;;25.83;14.83;;;-1.50;99.90;;;;;;5010977;28;20184;-65
2022/12/12 08:28:53;;;;;;;27.83;13.90;;;-1.40;99.90;;;;;;5011320;28;20529;-64
2022/12/12 08:31:20;;;;;;;31.77;14.90;;;-1.60;99.90;;;;;;5010551;28;20459;-68
2022/12/12 08:33:46;;;;;;;40.87;19.40;;;-1.60;99.90;;;;;;5011528;28;20423;-65
2022/12/12 08:36:18;;;;;;;43.97;17.03;;;-2.00;99.90;;;;;;5011032;28;20434;-68
2022/12/12 08:38:44;;;;;;;46.47;19.50;;;-2.10;99.90;;;;;;5011164;28;20886;-68
2022/12/12 08:41:11;;;;;;;37.23;16.97;;;-2.00;99.90;;;;;;5009856;28;20565;-67
2022/12/12 08:43:38;;;;;;;43.27;17.83;;;-1.90;99.90;;;;;;5010856;28;20469;-66
2022/12/12 08:46:05;;;;;;;32.77;16.27;;;-1.90;99.90;;;;;;5010605;28;20458;-65
2022/12/12 08:48:30;;;;;;;28.37;14.23;;;-2.00;99.90;;;;;;5011107;28;20454;-67
2022/12/12 08:50:57;;;;;;;38.10;14.93;;;-1.90;99.90;;;;;;5011799;28;20490;-64
2022/12/12 08:53:23;;;;;;;27.33;15.77;;;-1.90;99.90;;;;;;5014863;28;20493;-67
2022/12/12 08:55:49;;;;;;;53.90;16.27;;;-1.50;99.90;;;;;;5045590;23;20559;-65
2022/12/12 08:58:15;;;;;;;27.40;14.80;;;-1.30;99.90;;;;;;5052327;28;20492;-66
2022/12/12 09:00:41;;;;;;;24.03;13.53;;;-1.30;99.90;;;;;;5051433;28;20171;-66
2022/12/12 09:03:06;;;;;;;31.93;14.13;;;-1.00;99.90;;;;;;5052401;28;20163;-66
2022/12/12 09:05:32;;;;;;;37.20;15.67;;;-0.90;99.90;;;;;;5042581;28;20227;-66
2022/12/12 09:07:58;;;;;;;35.23;14.03;;;-1.00;99.90;;;;;;5032123;28;20179;-65
2022/12/12 09:10:25;;;;;;;23.90;12.67;;;-1.00;99.90;;;;;;5031139;28;20190;-66
2022/12/12 09:12:50;;;;;;;25.60;13.03;;;-0.90;99.90;;;;;;5031765;28;20203;-65
2022/12/12 09:15:16;;;;;;;27.27;16.27;;;-0.70;99.90;;;;;;5031800;28;20488;-66
2022/12/12 09:17:42;;;;;;;63.73;17.37;;;-0.60;99.90;;;;;;5032223;28;20251;-65
2022/12/12 09:20:08;;;;;;;56.53;17.83;;;0.20;99.90;;;;;;5032417;28;20203;-66
2022/12/12 09:22:34;;;;;;;79.17;22.47;;;1.70;99.90;;;;;;5031330;28;20197;-66
2022/12/12 09:24:59;;;;;;;52.37;17.03;;;2.60;99.90;;;;;;5031738;28;21139;-66
2022/12/12 09:27:25;;;;;;;39.87;16.90;;;3.30;99.90;;;;;;5031337;28;20172;-66
2022/12/12 09:29:51;;;;;;;38.53;16.40;;;3.50;99.90;;;;;;5032004;28;20179;-67
2022/12/12 09:32:17;;;;;;;41.97;17.27;;;3.30;99.90;;;;;;5029455;28;20207;-65
2022/12/12 09:34:43;;;;;;;23.40;14.63;;;3.50;99.90;;;;;;5031435;28;20171;-65
2022/12/12 09:37:09;;;;;;;25.00;14.03;;;3.60;99.90;;;;;;5031815;28;20433;-66
2022/12/12 09:39:34;;;;;;;20.07;13.07;;;3.60;99.90;;;;;;5031951;28;20176;-67
2022/12/12 09:42:33;;;;;;;34.73;14.17;;;3.40;99.90;;;;;;5030942;28;20741;-67
2022/12/12 09:45:03;;;;;;;24.90;14.23;;;3.50;99.90;;;;;;5027236;28;20265;-67
2022/12/12 09:47:40;;;;;;;22.57;12.40;;;3.30;99.90;;;;;;5031516;28;20413;-67
2022/12/12 09:50:44;;;;;;;17.20;12.50;;;2.60;99.90;;;;;;5031482;28;20413;-67
2022/12/12 09:53:17;;;;;;;19.40;12.33;;;2.80;99.90;;;;;;5031814;28;20419;-67
2022/12/12 09:55:55;;;;;;;21.70;14.33;;;2.70;99.90;;;;;;5030634;28;20715;-67
2022/12/12 09:58:33;;;;;;;45.53;17.57;;;2.70;99.90;;;;;;5031688;28;20418;-67
2022/12/12 10:01:21;;;;;;;46.57;19.47;;;2.80;99.90;;;;;;5030760;28;20417;-67
2022/12/12 10:04:05;;;;;;;39.87;16.53;;;2.50;99.90;;;;;;5031039;28;20406;-67
2022/12/12 10:06:51;;;;;;;31.83;17.10;;;2.90;99.90;;;;;;5031409;28;20425;-67
2022/12/12 10:09:50;;;;;;;22.90;14.53;;;3.00;99.90;;;;;;5031772;28;20489;-67
2022/12/12 10:12:19;;;;;;;17.03;13.87;;;3.40;99.90;;;;;;5028687;28;20876;-67
2022/12/12 10:14:51;;;;;;;20.63;13.90;;;3.60;99.90;;;;;;5030698;28;20513;-67
2022/12/12 10:17:39;;;;;;;28.67;13.20;;;3.90;99.90;;;;;;5031002;28;20773;-67
2022/12/12 10:20:29;;;;;;;37.33;15.53;;;3.40;99.90;;;;;;5030931;28;20391;-67
2022/12/12 10:23:31;;;;;;;27.87;14.40;;;3.50;99.90;;;;;;5030699;28;20433;-67
2022/12/12 10:26:06;;;;;;;88.53;18.73;;;3.40;99.90;;;;;;5028864;28;20454;-67
2022/12/12 10:28:32;;;;;;;30.03;14.83;;;3.50;99.90;;;;;;5030784;28;20880;-67
2022/12/12 10:31:28;;;;;;;57.23;19.57;;;3.50;99.90;;;;;;5030222;28;20457;-67
2022/12/12 10:34:11;;;;;;;49.47;19.07;;;3.70;99.90;;;;;;5016291;28;20279;-67
2022/12/12 10:36:56;;;;;;;62.17;16.90;;;4.00;99.90;;;;;;5010610;28;20427;-67
2022/12/12 10:39:27;;;;;;;44.00;16.90;;;4.10;99.90;;;;;;5011197;28;20415;-67
2022/12/12 10:42:11;;;;;;;19.07;14.47;;;3.90;99.90;;;;;;5010127;28;20522;-67
2022/12/12 10:44:51;;;;;;;35.30;14.80;;;4.10;99.90;;;;;;5011248;28;20407;-67
2022/12/12 10:47:17;;;;;;;22.17;14.00;;;4.20;99.90;;;;;;5010794;28;20407;-67
2022/12/12 10:49:43;;;;;;;20.30;13.80;;;4.40;99.90;;;;;;5010979;28;20465;-67
2022/12/12 10:52:20;;;;;;;23.50;14.00;;;4.60;99.90;;;;;;5009870;28;20466;-67
2022/12/12 10:55:17;;;;;;;28.70;15.67;;;4.70;99.90;;;;;;5010424;28;20248;-67
2022/12/12 10:57:43;;;;;;;23.17;14.47;;;4.90;99.90;;;;;;5010254;28;20411;-67
2022/12/12 11:00:29;;;;;;;20.77;12.90;;;5.10;99.90;;;;;;5011082;28;20407;-67
2022/12/12 11:02:58;;;;;;;37.40;15.23;;;5.10;99.90;;;;;;5010725;28;20227;-67
2022/12/12 11:05:33;;;;;;;47.73;17.23;;;5.10;99.90;;;;;;5009926;28;20435;-67
2022/12/12 11:08:24;;;;;;;39.03;16.50;;;5.20;99.90;;;;;;5008887;28;20450;-67
2022/12/12 11:11:03;;;;;;;21.40;14.10;;;5.30;99.90;;;;;;5008608;28;20465;-66
2022/12/12 11:13:30;;;;;;;25.70;15.50;;;5.20;99.90;;;;;;5009679;28;20558;-66
2022/12/12 11:16:00;;;;;;;26.93;13.90;;;5.20;99.90;;;;;;5009449;28;20802;-66
2022/12/12 11:18:27;;;;;;;26.67;14.77;;;4.70;99.90;;;;;;5010299;28;20507;-65
2022/12/12 11:21:12;;;;;;;25.27;15.37;;;4.80;99.90;;;;;;5009183;28;20458;-66
2022/12/12 11:23:40;;;;;;;24.30;14.63;;;4.70;99.90;;;;;;5009981;28;20489;-65
2022/12/12 11:26:16;;;;;;;66.53;18.63;;;4.60;99.90;;;;;;5009415;28;20511;-65
2022/12/12 11:28:50;;;;;;;30.10;15.10;;;4.50;99.90;;;;;;5010191;28;20486;-66
2022/12/12 11:31:20;;;;;;;55.43;18.33;;;3.90;99.90;;;;;;5009193;28;20457;-65
2022/12/12 11:33:50;;;;;;;49.53;18.97;;;4.10;99.90;;;;;;5023221;28;20930;-66
2022/12/12 11:36:18;;;;;;;52.33;18.57;;;4.40;99.90;;;;;;5029163;28;20422;-65
2022/12/12 11:38:58;;;;;;;45.20;16.67;;;4.40;99.90;;;;;;5029785;28;20445;-66
2022/12/12 11:41:23;;;;;;;62.10;20.30;;;4.40;99.90;;;;;;5028391;28;20418;-66
2022/12/12 11:43:49;;;;;;;46.87;15.70;;;4.60;99.90;;;;;;5029336;28;20710;-67
2022/12/12 11:46:14;;;;;;;25.93;13.37;;;4.50;99.90;;;;;;5029248;28;20270;-66
2022/12/12 11:48:56;;;;;;;23.57;15.30;;;4.40;99.90;;;;;;5029639;28;20214;-67
2022/12/12 11:51:43;;;;;;;19.03;13.87;;;4.30;99.90;;;;;;5028235;28;20210;-68
2022/12/12 11:54:28;;;;;;;25.73;16.80;;;4.00;99.90;;;;;;5025332;28;20446;-66
2022/12/12 11:57:00;;;;;;;24.50;13.33;;;3.90;99.90;;;;;;5027994;28;20469;-66
2022/12/12 11:59:57;;;;;;;18.70;12.83;;;4.00;99.90;;;;;;5029235;28;20409;-64
2022/12/12 12:02:44;;;;;;;28.00;12.70;;;3.70;99.90;;;;;;5027491;28;20487;-66
2022/12/12 12:05:52;;;;;;;26.07;12.90;;;4.20;99.90;;;;;;5028573;28;20426;-66
2022/12/12 12:08:38;;;;;;;47.63;16.37;;;4.30;99.90;;;;;;5008059;28;20513;-66
2022/12/12 12:11:15;;;;;;;25.87;14.40;;;4.50;99.90;;;;;;5027905;28;20466;-67
2022/12/12 12:14:02;;;;;;;19.87;13.27;;;4.60;99.90;;;;;;5029217;28;20407;-66
2022/12/12 12:16:30;;;;;;;19.80;14.70;;;4.80;99.90;;;;;;5028982;28;20499;-66
2022/12/12 12:19:09;;;;;;;30.00;14.57;;;4.60;99.90;;;;;;5020144;28;20407;-66
2022/12/12 12:21:38;;;;;;;20.97;12.50;;;4.30;99.90;;;;;;5009346;28;20399;-66
2022/12/12 12:24:27;;;;;;;22.33;13.63;;;4.20;99.90;;;;;;5025917;28;20544;-66
2022/12/12 12:27:01;;;;;;;17.70;12.87;;;4.50;99.90;;;;;;5026309;28;20425;-66
2022/12/12 12:29:33;;;;;;;20.60;12.73;;;4.60;99.90;;;;;;5033419;28;20410;-66
2022/12/12 12:32:11;;;;;;;22.27;13.00;;;4.30;99.90;;;;;;5032412;28;20555;-66
2022/12/12 12:35:03;;;;;;;26.73;13.90;;;4.40;99.90;;;;;;5016729;28;20452;-66
2022/12/12 12:37:38;;;;;;;21.47;13.30;;;4.50;99.90;;;;;;5033198;28;20881;-66
2022/12/12 12:40:07;;;;;;;30.50;15.40;;;4.60;99.90;;;;;;5033061;28;20455;-65
2022/12/12 12:42:48;;;;;;;29.70;13.90;;;4.40;99.90;;;;;;5031906;28;20559;-65
2022/12/12 12:45:20;;;;;;;70.00;20.50;;;4.20;99.90;;;;;;5022426;28;20438;-65
2022/12/12 12:48:01;;;;;;;48.63;14.53;;;4.50;99.90;;;;;;5013624;28;20713;-65
2022/12/12 12:50:35;;;;;;;41.37;15.77;;;4.50;99.90;;;;;;5012418;28;20408;-66
2022/12/12 12:53:36;;;;;;;63.77;18.40;;;4.40;99.90;;;;;;5013396;28;20454;-67
2022/12/12 12:56:25;;;;;;;24.83;14.33;;;4.40;99.90;;;;;;5012013;28;20523;-65
2022/12/12 12:58:54;;;;;;;146.80;28.40;;;4.10;99.90;;;;;;5012813;28;20962;-65
2022/12/12 13:01:29;;;;;;;154.80;27.77;;;4.20;99.90;;;;;;5022108;28;20406;-66
2022/12/12 13:04:20;;;;;;;27.73;13.90;;;4.20;99.90;;;;;;5032870;28;20527;-67
2022/12/12 13:06:49;;;;;;;164.60;27.60;;;4.00;99.90;;;;;;5032337;28;20429;-66